createdAt,value
2018-07-15T00:00:53.432Z,0.00
2018-07-15T00:01:53.474Z,0.00
2018-07-15T00:02:53.404Z,0.00
2018-07-15T00:03:53.390Z,0.00
2018-07-15T00:04:53.379Z,0.00
2018-07-15T00:05:53.376Z,0.00
2018-07-15T00:06:53.424Z,0.00
2018-07-15T00:07:53.349Z,0.00
2018-07-15T00:08:53.343Z,0.00
2018-07-15T00:09:53.324Z,0.00
2018-07-15T00:10:53.313Z,0.00
2018-07-15T00:11:53.373Z,0.00
2018-07-15T00:12:53.294Z,0.00
2018-07-15T00:13:53.280Z,0.00
2018-07-15T00:14:53.818Z,0.00
2018-07-15T00:15:53.261Z,0.00
2018-07-15T00:16:53.313Z,0.00
2018-07-15T00:17:53.239Z,0.00
2018-07-15T00:18:53.233Z,0.00
2018-07-15T00:19:53.219Z,0.00
2018-07-15T00:20:53.211Z,0.00
2018-07-15T00:21:53.258Z,0.00
2018-07-15T00:23:01.332Z,0.00
2018-07-15T00:24:01.342Z,0.00
2018-07-15T00:25:01.244Z,0.00
2018-07-15T00:26:01.254Z,0.00
2018-07-15T00:27:01.330Z,0.00
2018-07-15T00:28:01.264Z,0.00
2018-07-15T00:29:01.274Z,0.00
2018-07-15T00:30:01.833Z,0.00
2018-07-15T00:31:01.286Z,0.00
2018-07-15T00:32:01.373Z,0.00
2018-07-15T00:33:01.201Z,0.00
2018-07-15T00:34:01.717Z,0.00
2018-07-15T00:35:01.202Z,0.00
2018-07-15T00:36:01.216Z,0.00
2018-07-15T00:36:53.104Z,0.00
2018-07-15T00:37:53.026Z,0.00
2018-07-15T00:39:01.135Z,0.00
2018-07-15T00:40:01.144Z,0.00
2018-07-15T00:41:01.138Z,0.00
2018-07-15T00:42:01.220Z,0.00
2018-07-15T00:43:01.058Z,0.00
2018-07-15T00:44:01.059Z,0.00
2018-07-15T00:45:01.075Z,0.00
2018-07-15T00:46:01.083Z,0.00
2018-07-15T00:47:01.152Z,0.00
2018-07-15T00:48:01.495Z,0.00
2018-07-15T00:49:00.997Z,0.00
2018-07-15T00:50:00.991Z,0.00
2018-07-15T00:51:01.007Z,0.00
2018-07-15T00:52:01.083Z,0.00
2018-07-15T00:53:01.027Z,0.00
2018-07-15T00:54:01.061Z,0.00
2018-07-15T00:55:00.941Z,0.00
2018-07-15T00:56:00.939Z,0.00
2018-07-15T00:57:00.999Z,0.00
2018-07-15T00:58:00.947Z,0.00
2018-07-15T00:58:52.801Z,0.00
2018-07-15T00:59:52.791Z,0.00
2018-07-15T01:00:52.777Z,0.00
2018-07-15T01:01:53.105Z,0.00
2018-07-15T01:02:52.757Z,0.00
2018-07-15T01:04:00.881Z,0.00
2018-07-15T01:04:52.734Z,0.00
2018-07-15T01:05:52.737Z,0.00
2018-07-15T01:06:52.774Z,0.00
2018-07-15T01:07:52.701Z,0.00
2018-07-15T01:08:52.693Z,0.00
2018-07-15T01:09:52.683Z,0.00
2018-07-15T01:10:52.674Z,0.00
2018-07-15T01:11:52.731Z,0.00
2018-07-15T01:12:52.648Z,0.00
2018-07-15T01:13:52.643Z,0.00
2018-07-15T01:14:52.632Z,0.00
2018-07-15T01:15:52.616Z,0.00
2018-07-15T01:16:52.673Z,0.00
2018-07-15T01:17:52.601Z,0.00
2018-07-15T01:18:52.596Z,0.00
2018-07-15T01:19:52.571Z,0.00
2018-07-15T01:20:52.566Z,0.00
2018-07-15T01:21:52.625Z,0.00
2018-07-15T01:23:00.690Z,0.00
2018-07-15T01:24:00.083Z,0.00
2018-07-15T01:24:52.524Z,0.00
2018-07-15T01:26:00.615Z,0.00
2018-07-15T01:27:00.689Z,0.00
2018-07-15T01:28:01.141Z,0.00
2018-07-15T01:29:01.862Z,0.00
2018-07-15T01:30:01.366Z,0.00
2018-07-15T01:31:00.657Z,0.00
2018-07-15T01:32:00.117Z,0.00
2018-07-15T01:32:52.431Z,0.00
2018-07-15T01:34:00.935Z,0.00
2018-07-15T01:34:52.409Z,0.00
2018-07-15T01:36:00.480Z,0.00
2018-07-15T01:36:52.389Z,0.00
2018-07-15T01:37:52.442Z,0.00
2018-07-15T01:38:52.367Z,0.00
2018-07-15T01:39:52.362Z,0.00
2018-07-15T01:40:52.366Z,0.00
2018-07-15T01:41:52.341Z,0.00
2018-07-15T01:42:52.387Z,0.00
2018-07-15T01:43:52.315Z,0.00
2018-07-15T01:44:52.354Z,0.00
2018-07-15T01:45:52.298Z,0.00
2018-07-15T01:46:52.300Z,0.00
2018-07-15T01:47:52.347Z,0.00
2018-07-15T01:48:52.264Z,0.00
2018-07-15T01:49:52.251Z,0.00
2018-07-15T01:50:52.243Z,0.00
2018-07-15T01:51:52.238Z,0.00
2018-07-15T01:52:52.276Z,0.00
2018-07-15T01:53:52.209Z,0.00
2018-07-15T01:54:52.198Z,0.00
2018-07-15T01:55:52.185Z,0.00
2018-07-15T01:56:52.990Z,0.00
2018-07-15T01:57:52.241Z,0.00
2018-07-15T01:58:52.156Z,0.00
2018-07-15T01:59:52.156Z,0.00
2018-07-15T02:00:52.160Z,0.00
2018-07-15T02:01:52.120Z,0.00
2018-07-15T02:02:52.180Z,0.00
2018-07-15T02:03:52.117Z,0.00
2018-07-15T02:04:52.092Z,0.00
2018-07-15T02:05:52.092Z,0.00
2018-07-15T02:06:52.066Z,0.00
2018-07-15T02:07:52.120Z,0.00
2018-07-15T02:08:52.046Z,0.00
2018-07-15T02:09:52.051Z,0.00
2018-07-15T02:10:52.026Z,0.00
2018-07-15T02:11:52.026Z,0.00
2018-07-15T02:12:52.070Z,0.00
2018-07-15T02:13:51.991Z,0.00
2018-07-15T02:14:51.983Z,0.00
2018-07-15T02:15:51.971Z,0.00
2018-07-15T02:16:51.960Z,0.00
2018-07-15T02:17:52.045Z,0.00
2018-07-15T02:18:51.943Z,0.00
2018-07-15T02:19:51.935Z,0.00
2018-07-15T02:20:51.921Z,0.00
2018-07-15T02:21:51.921Z,0.00
2018-07-15T02:22:51.965Z,0.00
2018-07-15T02:23:51.888Z,0.00
2018-07-15T02:24:51.877Z,0.00
2018-07-15T02:25:51.866Z,0.00
2018-07-15T02:26:51.858Z,0.00
2018-07-15T02:27:51.902Z,0.00
2018-07-15T02:28:51.890Z,0.00
2018-07-15T02:29:51.833Z,0.00
2018-07-15T02:30:51.808Z,0.00
2018-07-15T02:31:51.800Z,0.00
2018-07-15T02:32:51.860Z,0.00
2018-07-15T02:33:51.786Z,0.00
2018-07-15T02:34:51.781Z,0.00
2018-07-15T02:35:51.764Z,0.00
2018-07-15T02:36:51.850Z,0.00
2018-07-15T02:37:51.797Z,0.00
2018-07-15T02:38:52.464Z,0.00
2018-07-15T02:39:51.714Z,0.00
2018-07-15T02:40:51.700Z,0.00
2018-07-15T02:41:51.690Z,0.00
2018-07-15T02:42:51.744Z,0.00
2018-07-15T02:43:51.667Z,0.00
2018-07-15T02:44:51.664Z,0.00
2018-07-15T02:45:51.670Z,0.00
2018-07-15T02:46:51.640Z,0.00
2018-07-15T02:47:51.686Z,0.00
2018-07-15T02:48:51.614Z,0.00
2018-07-15T02:49:51.614Z,0.00
2018-07-15T02:50:51.594Z,0.00
2018-07-15T02:51:51.581Z,0.00
2018-07-15T02:52:51.636Z,0.00
2018-07-15T02:53:51.562Z,4.00
2018-07-15T02:54:51.555Z,4.00
2018-07-15T02:55:51.537Z,0.00
2018-07-15T02:56:51.528Z,0.00
2018-07-15T02:57:51.578Z,4.00
2018-07-15T02:58:51.514Z,4.00
2018-07-15T02:59:52.467Z,4.00
2018-07-15T03:00:51.487Z,4.00
2018-07-15T03:01:51.475Z,4.00
2018-07-15T03:02:51.555Z,8.00
2018-07-15T03:03:51.453Z,8.00
2018-07-15T03:04:51.445Z,8.00
2018-07-15T03:05:51.431Z,8.00
2018-07-15T03:06:51.420Z,8.00
2018-07-15T03:07:51.488Z,12.00
2018-07-15T03:08:51.402Z,16.00
2018-07-15T03:09:51.389Z,20.00
2018-07-15T03:10:51.381Z,20.00
2018-07-15T03:11:51.365Z,20.00
2018-07-15T03:12:51.359Z,24.00
2018-07-15T03:13:51.428Z,28.00
2018-07-15T03:14:51.340Z,32.00
2018-07-15T03:15:51.326Z,36.00
2018-07-15T03:16:51.313Z,40.00
2018-07-15T03:17:51.982Z,48.00
2018-07-15T03:18:51.349Z,52.00
2018-07-15T03:19:51.282Z,60.00
2018-07-15T03:20:51.963Z,64.00
2018-07-15T03:21:51.263Z,76.00
2018-07-15T03:22:51.257Z,84.00
2018-07-15T03:23:51.302Z,92.00
2018-07-15T03:24:51.227Z,100.00
2018-07-15T03:25:51.216Z,112.00
2018-07-15T03:26:51.205Z,128.00
2018-07-15T03:27:51.197Z,140.00
2018-07-15T03:28:51.252Z,156.00
2018-07-15T03:29:51.171Z,168.00
2018-07-15T03:30:51.163Z,188.00
2018-07-15T03:31:51.159Z,204.00
2018-07-15T03:32:51.141Z,224.00
2018-07-15T03:33:51.212Z,244.00
2018-07-15T03:34:51.124Z,264.00
2018-07-15T03:35:51.108Z,288.00
2018-07-15T03:36:51.097Z,304.00
2018-07-15T03:37:51.091Z,332.00
2018-07-15T03:38:51.138Z,356.00
2018-07-15T03:39:51.107Z,384.00
2018-07-15T03:40:51.053Z,412.00
2018-07-15T03:41:51.959Z,440.00
2018-07-15T03:42:51.040Z,468.00
2018-07-15T03:43:51.085Z,500.00
2018-07-15T03:44:51.012Z,532.00
2018-07-15T03:45:51.002Z,568.00
2018-07-15T03:46:51.015Z,604.00
2018-07-15T03:47:50.978Z,636.00
2018-07-15T03:48:51.028Z,676.00
2018-07-15T03:49:50.964Z,708.00
2018-07-15T03:50:50.955Z,748.00
2018-07-15T03:51:50.939Z,788.00
2018-07-15T03:52:50.925Z,824.00
2018-07-15T03:53:50.978Z,864.00
2018-07-15T03:54:50.903Z,904.00
2018-07-15T03:55:50.898Z,940.00
2018-07-15T03:56:50.912Z,980.00
2018-07-15T03:57:50.876Z,1020.00
2018-07-15T03:58:50.928Z,1060.00
2018-07-15T03:59:50.851Z,1100.00
2018-07-15T04:00:50.887Z,1136.00
2018-07-15T04:01:50.829Z,1180.00
2018-07-15T04:02:51.464Z,1216.00
2018-07-15T04:03:50.897Z,1256.00
2018-07-15T04:04:50.842Z,1300.00
2018-07-15T04:05:50.788Z,1336.00
2018-07-15T04:06:50.776Z,1376.00
2018-07-15T04:07:50.765Z,1420.00
2018-07-15T04:08:50.878Z,1464.00
2018-07-15T04:09:50.743Z,1508.00
2018-07-15T04:10:50.729Z,1556.00
2018-07-15T04:11:50.732Z,1596.00
2018-07-15T04:12:50.727Z,1640.00
2018-07-15T04:13:50.765Z,1680.00
2018-07-15T04:14:50.690Z,1724.00
2018-07-15T04:15:50.674Z,1772.00
2018-07-15T04:16:50.665Z,1816.00
2018-07-15T04:17:50.655Z,1868.00
2018-07-15T04:18:50.711Z,1920.00
2018-07-15T04:19:50.632Z,1972.00
2018-07-15T04:20:50.624Z,2020.00
2018-07-15T04:21:50.610Z,2076.00
2018-07-15T04:22:50.610Z,2128.00
2018-07-15T04:23:51.534Z,2176.00
2018-07-15T04:24:50.580Z,2224.00
2018-07-15T04:25:50.566Z,2276.00
2018-07-15T04:26:50.576Z,2320.00
2018-07-15T04:27:50.547Z,2368.00
2018-07-15T04:28:50.599Z,2412.00
2018-07-15T04:29:50.543Z,2456.00
2018-07-15T04:30:50.519Z,2504.00
2018-07-15T04:31:50.499Z,2548.00
2018-07-15T04:32:50.491Z,2596.00
2018-07-15T04:33:50.541Z,2640.00
2018-07-15T04:34:50.471Z,2688.00
2018-07-15T04:35:50.461Z,2740.00
2018-07-15T04:36:50.447Z,2788.00
2018-07-15T04:37:50.440Z,2840.00
2018-07-15T04:38:50.542Z,2892.00
2018-07-15T04:39:50.414Z,2944.00
2018-07-15T04:40:50.405Z,2992.00
2018-07-15T04:41:50.394Z,3044.00
2018-07-15T04:42:50.388Z,3092.00
2018-07-15T04:43:50.451Z,3140.00
2018-07-15T04:44:50.955Z,3184.00
2018-07-15T04:45:50.350Z,3232.00
2018-07-15T04:46:50.336Z,3276.00
2018-07-15T04:47:50.326Z,3328.00
2018-07-15T04:48:50.382Z,3376.00
2018-07-15T04:49:50.314Z,3428.00
2018-07-15T04:50:50.313Z,3472.00
2018-07-15T04:51:50.287Z,3520.00
2018-07-15T04:52:50.278Z,3568.00
2018-07-15T04:53:50.334Z,3612.00
2018-07-15T04:54:50.254Z,3660.00
2018-07-15T04:55:50.246Z,3704.00
2018-07-15T04:56:50.242Z,3752.00
2018-07-15T04:57:50.219Z,3796.00
2018-07-15T04:58:50.286Z,3848.00
2018-07-15T04:59:50.196Z,3884.00
2018-07-15T05:00:50.192Z,3928.00
2018-07-15T05:01:58.381Z,3968.00
2018-07-15T05:02:58.346Z,4016.00
2018-07-15T05:03:58.621Z,4056.00
2018-07-15T05:04:58.253Z,4096.00
2018-07-15T05:05:58.352Z,4136.00
2018-07-15T05:06:50.123Z,4176.00
2018-07-15T05:07:50.115Z,4208.00
2018-07-15T05:08:50.101Z,4244.00
2018-07-15T05:09:58.244Z,4280.00
2018-07-15T05:10:58.186Z,4316.00
2018-07-15T05:11:58.188Z,4356.00
2018-07-15T05:12:58.196Z,4400.00
2018-07-15T05:13:57.666Z,4444.00
2018-07-15T05:14:58.118Z,4488.00
2018-07-15T05:15:50.031Z,4532.00
2018-07-15T05:16:50.016Z,4568.00
2018-07-15T05:17:50.005Z,4604.00
2018-07-15T05:18:49.994Z,4640.00
2018-07-15T05:19:50.046Z,4680.00
2018-07-15T05:20:49.974Z,4720.00
2018-07-15T05:21:49.964Z,4756.00
2018-07-15T05:22:49.957Z,4808.00
2018-07-15T05:23:49.939Z,4852.00
2018-07-15T05:24:50.421Z,4900.00
2018-07-15T05:25:49.918Z,4940.00
2018-07-15T05:26:49.908Z,4976.00
2018-07-15T05:27:49.894Z,5008.00
2018-07-15T05:28:49.884Z,5040.00
2018-07-15T05:29:49.940Z,5076.00
2018-07-15T05:30:49.867Z,5116.00
2018-07-15T05:31:49.853Z,5156.00
2018-07-15T05:32:49.841Z,5188.00
2018-07-15T05:33:49.833Z,5228.00
2018-07-15T05:34:49.892Z,5264.00
2018-07-15T05:35:50.318Z,5304.00
2018-07-15T05:36:49.803Z,5352.00
2018-07-15T05:37:49.794Z,5392.00
2018-07-15T05:38:49.779Z,5444.00
2018-07-15T05:39:49.841Z,5488.00
2018-07-15T05:40:49.759Z,5536.00
2018-07-15T05:41:49.816Z,5584.00
2018-07-15T05:42:49.737Z,5620.00
2018-07-15T05:43:49.728Z,5660.00
2018-07-15T05:44:49.781Z,5696.00
2018-07-15T05:45:49.703Z,5732.00
2018-07-15T05:46:49.693Z,5768.00
2018-07-15T05:47:49.692Z,5808.00
2018-07-15T05:48:49.681Z,5852.00
2018-07-15T05:49:49.728Z,5912.00
2018-07-15T05:50:49.657Z,5988.00
2018-07-15T05:51:49.642Z,6080.00
2018-07-15T05:52:49.626Z,6180.00
2018-07-15T05:53:49.612Z,6292.00
2018-07-15T05:54:49.668Z,6436.00
2018-07-15T05:55:49.591Z,7328.00
2018-07-15T05:56:50.314Z,11764.00
2018-07-15T05:57:49.574Z,17696.00
2018-07-15T05:58:49.568Z,19744.00
2018-07-15T05:59:49.634Z,20160.00
2018-07-15T06:00:49.543Z,19872.00
2018-07-15T06:01:49.535Z,20672.00
2018-07-15T06:02:49.521Z,22528.00
2018-07-15T06:03:49.510Z,22784.00
2018-07-15T06:04:49.563Z,23552.00
2018-07-15T06:05:49.491Z,24160.00
2018-07-15T06:06:49.479Z,25824.00
2018-07-15T06:07:49.474Z,26048.00
2018-07-15T06:08:49.471Z,26080.00
2018-07-15T06:09:49.505Z,26112.00
2018-07-15T06:10:49.535Z,27456.00
2018-07-15T06:11:49.427Z,27680.00
2018-07-15T06:12:49.410Z,28256.00
2018-07-15T06:13:49.404Z,28928.00
2018-07-15T06:14:49.453Z,29280.00
2018-07-15T06:15:49.380Z,29792.00
2018-07-15T06:16:49.378Z,31136.00
2018-07-15T06:17:50.312Z,30560.00
2018-07-15T06:18:49.350Z,30848.00
2018-07-15T06:19:49.407Z,31008.00
2018-07-15T06:20:49.328Z,30752.00
2018-07-15T06:21:49.319Z,31168.00
2018-07-15T06:22:49.343Z,32896.00
2018-07-15T06:23:49.300Z,32640.00
2018-07-15T06:24:49.352Z,32256.00
2018-07-15T06:25:49.280Z,32832.00
2018-07-15T06:26:49.261Z,33664.00
2018-07-15T06:27:49.252Z,35616.00
2018-07-15T06:28:49.239Z,36800.00
2018-07-15T06:29:49.289Z,36352.00
2018-07-15T06:30:49.220Z,35744.00
2018-07-15T06:31:49.245Z,37600.00
2018-07-15T06:32:49.202Z,39200.00
2018-07-15T06:33:49.192Z,39360.00
2018-07-15T06:34:49.258Z,38080.00
2018-07-15T06:35:49.173Z,37088.00
2018-07-15T06:36:49.159Z,37888.00
2018-07-15T06:37:49.144Z,38912.00
2018-07-15T06:38:49.812Z,38400.00
2018-07-15T06:39:49.125Z,39520.00
2018-07-15T06:40:49.178Z,38432.00
2018-07-15T06:41:49.103Z,38208.00
2018-07-15T06:42:49.093Z,38816.00
2018-07-15T06:43:49.081Z,41440.00
2018-07-15T06:44:49.076Z,43776.00
2018-07-15T06:45:49.120Z,44224.00
2018-07-15T06:46:49.051Z,44320.00
2018-07-15T06:47:49.040Z,43776.00
2018-07-15T06:48:49.031Z,43360.00
2018-07-15T06:49:49.017Z,43392.00
2018-07-15T06:50:49.070Z,44512.00
2018-07-15T06:51:49.000Z,45216.00
2018-07-15T06:52:48.989Z,46752.00
2018-07-15T06:53:49.010Z,46816.00
2018-07-15T06:54:48.964Z,46848.00
2018-07-15T06:55:49.046Z,47488.00
2018-07-15T06:56:48.946Z,47296.00
2018-07-15T06:57:48.937Z,49120.00
2018-07-15T06:58:49.031Z,51360.00
2018-07-15T06:59:49.813Z,51136.00
2018-07-15T07:00:48.962Z,53344.00
2018-07-15T07:01:48.899Z,55936.00
2018-07-15T07:02:48.880Z,55008.00
2018-07-15T07:03:48.876Z,52672.00
2018-07-15T07:04:48.864Z,53056.00
2018-07-15T07:05:48.912Z,56160.00
2018-07-15T07:06:48.840Z,58528.00
2018-07-15T07:07:48.830Z,57280.00
2018-07-15T07:08:48.821Z,57344.00
2018-07-15T07:09:48.810Z,57600.00
2018-07-15T07:10:48.876Z,56352.00
2018-07-15T07:11:48.796Z,57024.00
2018-07-15T07:12:48.785Z,56384.00
2018-07-15T07:13:48.766Z,56128.00
2018-07-15T07:14:48.760Z,57440.00
2018-07-15T07:15:48.810Z,58176.00
2018-07-15T07:16:48.748Z,60704.00
2018-07-15T07:17:48.727Z,60192.00
2018-07-15T07:18:48.713Z,60704.00
2018-07-15T07:19:48.718Z,61504.00
2018-07-15T07:20:48.890Z,63072.00
2018-07-15T07:21:48.688Z,64128.00
2018-07-15T07:22:48.674Z,64896.00
2018-07-15T07:23:48.665Z,63552.00
2018-07-15T07:24:48.657Z,63840.00
2018-07-15T07:25:48.885Z,64288.00
2018-07-15T07:26:48.632Z,65728.00
2018-07-15T07:27:48.627Z,67744.00
2018-07-15T07:28:48.664Z,68800.00
2018-07-15T07:29:48.608Z,70816.00
2018-07-15T07:30:48.681Z,73856.00
2018-07-15T07:31:48.588Z,72256.00
2018-07-15T07:32:48.576Z,71840.00
2018-07-15T07:33:48.562Z,73664.00
2018-07-15T07:34:48.575Z,73728.00
2018-07-15T07:35:48.607Z,75552.00
2018-07-15T07:36:48.535Z,75840.00
2018-07-15T07:37:48.529Z,73312.00
2018-07-15T07:38:48.567Z,72000.00
2018-07-15T07:39:48.505Z,72576.00
2018-07-15T07:40:48.557Z,73472.00
2018-07-15T07:41:49.314Z,74848.00
2018-07-15T07:42:48.477Z,72064.00
2018-07-15T07:43:48.479Z,69600.00
2018-07-15T07:44:48.466Z,71488.00
2018-07-15T07:45:48.510Z,74176.00
2018-07-15T07:46:48.444Z,74400.00
2018-07-15T07:47:48.435Z,73056.00
2018-07-15T07:48:48.425Z,74176.00
2018-07-15T07:49:48.410Z,71712.00
2018-07-15T07:50:48.478Z,74304.00
2018-07-15T07:51:48.393Z,76352.00
2018-07-15T07:52:48.384Z,75360.00
2018-07-15T07:53:48.373Z,75776.00
2018-07-15T07:54:48.363Z,77824.00
2018-07-15T07:55:48.412Z,77024.00
2018-07-15T07:56:48.344Z,77184.00
2018-07-15T07:57:48.335Z,77184.00
2018-07-15T07:58:48.325Z,78240.00
2018-07-15T07:59:48.326Z,80256.00
2018-07-15T08:00:48.368Z,79808.00
2018-07-15T08:01:48.300Z,78752.00
2018-07-15T08:02:48.817Z,80832.00
2018-07-15T08:03:48.278Z,80864.00
2018-07-15T08:04:48.276Z,79456.00
2018-07-15T08:05:48.321Z,79264.00
2018-07-15T08:06:48.256Z,80064.00
2018-07-15T08:07:48.243Z,79680.00
2018-07-15T08:08:48.237Z,81728.00
2018-07-15T08:09:48.231Z,81792.00
2018-07-15T08:10:48.292Z,79424.00
2018-07-15T08:11:48.206Z,81376.00
2018-07-15T08:12:48.198Z,82720.00
2018-07-15T08:13:48.207Z,81376.00
2018-07-15T08:14:48.181Z,81952.00
2018-07-15T08:15:48.173Z,82016.00
2018-07-15T08:16:48.225Z,83648.00
2018-07-15T08:17:48.156Z,83424.00
2018-07-15T08:18:48.144Z,84224.00
2018-07-15T08:19:48.136Z,84928.00
2018-07-15T08:20:48.145Z,84128.00
2018-07-15T08:21:48.183Z,83808.00
2018-07-15T08:22:48.117Z,84576.00
2018-07-15T08:23:48.821Z,86912.00
2018-07-15T08:24:48.092Z,87744.00
2018-07-15T08:25:48.086Z,87968.00
2018-07-15T08:26:48.139Z,85984.00
2018-07-15T08:27:48.070Z,86720.00
2018-07-15T08:28:48.061Z,87456.00
2018-07-15T08:29:48.050Z,89568.00
2018-07-15T08:30:48.041Z,88736.00
2018-07-15T08:31:48.099Z,86848.00
2018-07-15T08:32:48.028Z,85760.00
2018-07-15T08:33:48.016Z,82080.00
2018-07-15T08:34:48.040Z,80896.00
2018-07-15T08:35:48.000Z,80960.00
2018-07-15T08:36:48.065Z,79968.00
2018-07-15T08:37:47.983Z,79168.00
2018-07-15T08:38:47.971Z,83840.00
2018-07-15T08:39:47.981Z,86368.00
2018-07-15T08:40:48.012Z,84704.00
2018-07-15T08:41:48.013Z,84448.00
2018-07-15T08:42:47.940Z,87520.00
2018-07-15T08:43:47.936Z,89024.00
2018-07-15T08:44:48.814Z,89376.00
2018-07-15T08:45:47.915Z,86336.00
2018-07-15T08:46:47.971Z,85824.00
2018-07-15T08:47:47.899Z,86048.00
2018-07-15T08:48:47.893Z,90112.00
2018-07-15T08:49:47.884Z,91488.00
2018-07-15T08:50:47.876Z,88736.00
2018-07-15T08:51:47.929Z,87520.00
2018-07-15T08:52:47.859Z,88576.00
2018-07-15T08:53:47.853Z,88864.00
2018-07-15T08:54:47.863Z,91168.00
2018-07-15T08:55:47.837Z,90816.00
2018-07-15T08:56:47.893Z,91840.00
2018-07-15T08:57:47.822Z,91648.00
2018-07-15T08:58:47.812Z,90848.00
2018-07-15T08:59:47.803Z,90336.00
2018-07-15T09:00:47.798Z,91968.00
2018-07-15T09:01:47.850Z,90656.00
2018-07-15T09:02:47.784Z,87744.00
2018-07-15T09:03:47.772Z,87616.00
2018-07-15T09:04:47.764Z,88096.00
2018-07-15T09:05:48.317Z,89664.00
2018-07-15T09:06:47.827Z,90400.00
2018-07-15T09:07:47.741Z,91296.00
2018-07-15T09:08:47.739Z,92352.00
2018-07-15T09:09:47.725Z,93120.00
2018-07-15T09:10:47.719Z,94304.00
2018-07-15T09:11:47.777Z,93376.00
2018-07-15T09:12:47.718Z,90560.00
2018-07-15T09:13:47.696Z,89152.00
2018-07-15T09:14:47.694Z,92992.00
2018-07-15T09:15:47.683Z,97760.00
2018-07-15T09:16:47.738Z,101760.00
2018-07-15T09:17:47.668Z,99168.00
2018-07-15T09:18:47.657Z,92608.00
2018-07-15T09:19:47.680Z,92544.00
2018-07-15T09:20:47.648Z,95456.00
2018-07-15T09:21:47.734Z,99712.00
2018-07-15T09:22:47.629Z,101856.00
2018-07-15T09:23:47.636Z,99328.00
2018-07-15T09:24:47.616Z,98976.00
2018-07-15T09:25:47.617Z,99616.00
2018-07-15T09:26:48.378Z,101824.00
2018-07-15T09:27:47.653Z,102784.00
2018-07-15T09:28:47.586Z,104320.00
2018-07-15T09:29:47.589Z,101248.00
2018-07-15T09:30:47.572Z,105632.00
2018-07-15T09:31:47.662Z,105600.00
2018-07-15T09:32:47.563Z,107456.00
2018-07-15T09:33:47.570Z,102144.00
2018-07-15T09:34:47.544Z,100768.00
2018-07-15T09:35:47.541Z,98048.00
2018-07-15T09:36:47.590Z,104448.00
2018-07-15T09:37:47.524Z,107744.00
2018-07-15T09:38:47.518Z,108992.00
2018-07-15T09:39:47.517Z,107872.00
2018-07-15T09:40:47.502Z,107104.00
2018-07-15T09:41:47.553Z,104128.00
2018-07-15T09:42:47.493Z,107680.00
2018-07-15T09:43:47.481Z,109888.00
2018-07-15T09:44:47.475Z,114400.00
2018-07-15T09:45:47.493Z,114528.00
2018-07-15T09:46:47.525Z,113984.00
2018-07-15T09:47:48.301Z,111232.00
2018-07-15T09:48:47.452Z,115456.00
2018-07-15T09:49:47.439Z,114528.00
2018-07-15T09:50:47.430Z,114976.00
2018-07-15T09:51:47.525Z,111584.00
2018-07-15T09:52:47.419Z,111168.00
2018-07-15T09:53:47.413Z,109664.00
2018-07-15T09:54:47.408Z,112896.00
2018-07-15T09:55:47.403Z,115104.00
2018-07-15T09:56:47.397Z,114496.00
2018-07-15T09:57:47.467Z,117088.00
2018-07-15T09:58:47.380Z,121568.00
2018-07-15T09:59:47.381Z,122528.00
2018-07-15T10:00:47.362Z,120512.00
2018-07-15T10:01:47.362Z,119808.00
2018-07-15T10:02:47.441Z,119200.00
2018-07-15T10:03:47.348Z,120896.00
2018-07-15T10:04:47.340Z,120000.00
2018-07-15T10:05:47.340Z,121088.00
2018-07-15T10:06:47.329Z,120832.00
2018-07-15T10:07:47.386Z,118432.00
2018-07-15T10:08:48.292Z,118208.00
2018-07-15T10:09:47.303Z,116288.00
2018-07-15T10:10:47.303Z,115488.00
2018-07-15T10:11:47.306Z,115520.00
2018-07-15T10:12:47.347Z,119520.00
2018-07-15T10:13:47.283Z,118848.00
2018-07-15T10:14:47.293Z,117856.00
2018-07-15T10:15:47.280Z,116032.00
2018-07-15T10:16:47.260Z,115936.00
2018-07-15T10:17:47.326Z,118496.00
2018-07-15T10:18:47.252Z,114880.00
2018-07-15T10:19:47.251Z,118240.00
2018-07-15T10:20:47.241Z,120224.00
2018-07-15T10:21:47.240Z,120256.00
2018-07-15T10:22:47.287Z,120256.00
2018-07-15T10:23:47.288Z,119872.00
2018-07-15T10:24:47.296Z,118144.00
2018-07-15T10:25:47.251Z,115712.00
2018-07-15T10:26:47.211Z,114592.00
2018-07-15T10:27:47.255Z,114272.00
2018-07-15T10:28:47.192Z,114048.00
2018-07-15T10:29:47.790Z,115104.00
2018-07-15T10:30:47.177Z,111200.00
2018-07-15T10:31:47.174Z,113344.00
2018-07-15T10:32:47.246Z,112224.00
2018-07-15T10:33:47.159Z,113984.00
2018-07-15T10:34:47.159Z,112800.00
2018-07-15T10:35:47.196Z,111488.00
2018-07-15T10:36:47.145Z,111872.00
2018-07-15T10:37:47.248Z,111616.00
2018-07-15T10:38:47.179Z,113184.00
2018-07-15T10:39:47.244Z,114048.00
2018-07-15T10:40:47.151Z,116160.00
2018-07-15T10:41:47.114Z,110208.00
2018-07-15T10:42:47.185Z,113344.00
2018-07-15T10:43:47.104Z,111872.00
2018-07-15T10:44:47.110Z,112352.00
2018-07-15T10:45:47.091Z,112736.00
2018-07-15T10:46:47.105Z,111552.00
2018-07-15T10:47:47.151Z,112160.00
2018-07-15T10:48:47.079Z,106560.00
2018-07-15T10:49:47.102Z,106272.00
2018-07-15T10:50:47.793Z,108000.00
2018-07-15T10:51:47.061Z,107680.00
2018-07-15T10:52:47.614Z,112512.00
2018-07-15T10:53:47.079Z,110208.00
2018-07-15T10:54:47.044Z,110368.00
2018-07-15T10:55:47.038Z,108512.00
2018-07-15T10:56:47.038Z,110208.00
2018-07-15T10:57:47.114Z,106656.00
2018-07-15T10:58:47.031Z,105504.00
2018-07-15T10:59:47.034Z,102528.00
2018-07-15T11:00:47.041Z,103552.00
2018-07-15T11:01:47.041Z,101504.00
2018-07-15T11:02:47.099Z,105472.00
2018-07-15T11:03:46.992Z,104352.00
2018-07-15T11:04:47.009Z,102272.00
2018-07-15T11:05:47.013Z,103264.00
2018-07-15T11:06:46.992Z,102592.00
2018-07-15T11:07:47.046Z,103520.00
2018-07-15T11:08:47.133Z,103680.00
2018-07-15T11:09:46.961Z,105504.00
2018-07-15T11:10:46.955Z,105664.00
2018-07-15T11:11:49.763Z,105376.00
2018-07-15T11:12:46.943Z,105248.00
2018-07-15T11:13:47.016Z,106816.00
2018-07-15T11:14:46.947Z,107392.00
2018-07-15T11:15:46.928Z,102880.00
2018-07-15T11:16:46.957Z,100864.00
2018-07-15T11:17:46.925Z,100288.00
2018-07-15T11:18:47.064Z,99488.00
2018-07-15T11:19:46.903Z,101536.00
2018-07-15T11:20:46.914Z,103424.00
2018-07-15T11:21:46.899Z,101568.00
2018-07-15T11:22:46.888Z,103296.00
2018-07-15T11:23:46.954Z,103936.00
2018-07-15T11:24:46.874Z,104672.00
2018-07-15T11:25:46.873Z,107776.00
2018-07-15T11:26:46.865Z,107328.00
2018-07-15T11:27:46.891Z,104512.00
2018-07-15T11:28:46.933Z,107904.00
2018-07-15T11:29:46.845Z,105824.00
2018-07-15T11:30:46.971Z,103648.00
2018-07-15T11:31:46.839Z,104480.00
2018-07-15T11:32:47.750Z,109952.00
2018-07-15T11:33:46.897Z,111584.00
2018-07-15T11:34:46.848Z,111328.00
2018-07-15T11:35:46.825Z,107776.00
2018-07-15T11:36:46.843Z,112160.00
2018-07-15T11:37:46.805Z,114432.00
2018-07-15T11:38:46.876Z,103104.00
2018-07-15T11:39:46.853Z,107872.00
2018-07-15T11:40:46.822Z,117728.00
2018-07-15T11:41:46.785Z,107936.00
2018-07-15T11:42:46.782Z,104320.00
2018-07-15T11:43:55.272Z,120096.00
2018-07-15T11:44:46.771Z,110400.00
2018-07-15T11:45:46.767Z,107648.00
2018-07-15T11:46:46.753Z,115392.00
2018-07-15T11:47:46.745Z,102144.00
2018-07-15T11:48:46.740Z,100256.00
2018-07-15T11:49:46.798Z,103040.00
2018-07-15T11:50:46.739Z,91552.00
2018-07-15T11:51:46.740Z,99904.00
2018-07-15T11:52:46.716Z,102624.00
2018-07-15T11:53:46.716Z,101664.00
2018-07-15T11:54:46.782Z,107712.00
2018-07-15T11:55:46.701Z,106240.00
2018-07-15T11:56:46.693Z,105792.00
2018-07-15T11:57:46.690Z,107648.00
2018-07-15T11:58:46.682Z,104256.00
2018-07-15T11:59:46.740Z,109664.00
2018-07-15T12:00:46.678Z,111648.00
2018-07-15T12:01:46.713Z,112448.00
2018-07-15T12:02:46.667Z,111584.00
2018-07-15T12:03:46.656Z,114336.00
2018-07-15T12:04:46.825Z,112576.00
2018-07-15T12:05:46.644Z,114560.00
2018-07-15T12:06:46.641Z,113856.00
2018-07-15T12:07:46.633Z,118656.00
2018-07-15T12:08:46.627Z,112800.00